createdAt,value
2023-05-25T00:01:00.546Z,4.10
2023-05-25T00:06:04.061Z,3.83
2023-05-25T00:11:06.398Z,4.20
2023-05-25T00:16:08.333Z,3.47
2023-05-25T00:21:10.930Z,3.60
2023-05-25T00:26:13.297Z,3.55
2023-05-25T00:31:15.181Z,3.25
2023-05-25T00:36:18.216Z,4.05
2023-05-25T00:41:20.978Z,3.70
2023-05-25T00:46:23.614Z,3.88
2023-05-25T00:51:26.957Z,3.55
2023-05-25T00:56:32.682Z,3.53
2023-05-25T01:01:40.093Z,4.00
2023-05-25T01:06:47.353Z,3.63
2023-05-25T01:11:51.486Z,3.85
2023-05-25T01:16:55.402Z,3.35
2023-05-25T01:22:04.544Z,3.85
2023-05-25T01:27:16.835Z,4.13
2023-05-25T01:32:20.297Z,3.45
2023-05-25T01:37:24.661Z,4.22
2023-05-25T01:42:26.821Z,4.10
2023-05-25T01:47:41.354Z,3.72
2023-05-25T01:52:49.286Z,3.97
2023-05-25T01:57:58.014Z,4.25
2023-05-25T02:03:01.791Z,3.85
2023-05-25T02:08:04.106Z,4.45
2023-05-25T02:13:07.311Z,3.55
2023-05-25T02:18:09.164Z,3.85
2023-05-25T02:23:11.238Z,4.13
2023-05-25T02:28:15.410Z,4.07
2023-05-25T02:33:19.024Z,4.65
2023-05-25T02:38:21.223Z,4.32
2023-05-25T02:43:23.303Z,4.07
2023-05-25T02:48:25.812Z,3.97
2023-05-25T02:53:28.086Z,3.60
2023-05-25T02:58:30.612Z,4.35
2023-05-25T03:03:47.914Z,3.80
2023-05-25T03:08:49.693Z,4.70
2023-05-25T03:13:52.221Z,4.45
2023-05-25T03:18:56.799Z,4.22
2023-05-25T03:23:59.639Z,4.10
2023-05-25T03:29:01.805Z,4.22
2023-05-25T03:34:04.525Z,4.00
2023-05-25T03:39:10.290Z,4.07
2023-05-25T03:44:12.757Z,4.22
2023-05-25T03:49:15.978Z,3.83
2023-05-25T03:54:18.101Z,3.90
2023-05-25T03:59:20.336Z,4.40
2023-05-25T04:04:22.595Z,4.25
2023-05-25T04:09:24.661Z,3.92
2023-05-25T04:14:26.943Z,4.07
2023-05-25T04:19:28.977Z,4.60
2023-05-25T04:24:32.733Z,4.10
2023-05-25T04:29:34.852Z,3.63
2023-05-25T04:34:37.066Z,4.07
2023-05-25T04:39:44.585Z,4.40
2023-05-25T04:44:47.154Z,4.53
2023-05-25T04:49:50.708Z,4.40
2023-05-25T04:54:53.742Z,4.43
2023-05-25T04:59:56.906Z,4.03
2023-05-25T05:05:02.897Z,4.28
2023-05-25T05:10:06.472Z,4.25
2023-05-25T05:15:11.124Z,4.25
2023-05-25T05:20:15.153Z,4.53
2023-05-25T05:25:17.968Z,4.13
2023-05-25T05:30:22.319Z,4.63
2023-05-25T05:35:24.475Z,4.78
2023-05-25T05:40:33.488Z,4.47
2023-05-25T05:45:35.638Z,3.97
2023-05-25T05:50:40.366Z,4.88
2023-05-25T05:55:45.149Z,4.57
2023-05-25T06:00:48.667Z,4.93
2023-05-25T06:05:50.821Z,4.47
2023-05-25T06:10:56.235Z,4.85
2023-05-25T06:15:58.968Z,4.43
2023-05-25T06:21:02.446Z,4.50
2023-05-25T06:26:07.244Z,4.68
2023-05-25T06:31:08.794Z,4.30
2023-05-25T06:36:11.339Z,4.38
2023-05-25T06:41:15.263Z,4.72
2023-05-25T06:46:18.821Z,4.63
2023-05-25T06:51:21.638Z,4.45
2023-05-25T06:56:23.964Z,4.40
2023-05-25T07:01:25.893Z,4.50
2023-05-25T07:06:28.214Z,4.80
2023-05-25T07:11:30.519Z,3.80
2023-05-25T07:16:33.334Z,4.35
2023-05-25T07:21:35.323Z,4.80
2023-05-25T07:26:37.663Z,4.20
2023-05-25T07:31:39.856Z,4.28
2023-05-25T07:36:41.586Z,3.65
2023-05-25T07:41:43.867Z,4.13
2023-05-25T07:46:45.916Z,3.97
2023-05-25T07:51:47.847Z,4.70
2023-05-25T07:56:49.698Z,4.15
2023-05-25T08:01:51.370Z,4.60
2023-05-25T08:06:53.184Z,4.07
2023-05-25T08:12:03.983Z,3.88
2023-05-25T08:17:15.249Z,3.80
2023-05-25T08:22:17.006Z,4.43
2023-05-25T08:27:18.590Z,4.05
2023-05-25T08:32:20.148Z,4.15
2023-05-25T08:37:23.363Z,4.25
2023-05-25T08:42:25.050Z,3.97
2023-05-25T08:47:31.478Z,4.00
2023-05-25T08:52:36.295Z,4.00
2023-05-25T08:57:54.536Z,3.55
2023-05-25T09:08:11.141Z,3.85
2023-05-25T09:13:21.919Z,4.28
2023-05-25T09:18:24.545Z,3.90
2023-05-25T09:23:26.264Z,3.90
2023-05-25T09:28:27.974Z,3.40
2023-05-25T09:33:30.123Z,3.00
2023-05-25T09:38:32.756Z,3.80
2023-05-25T09:43:44.739Z,3.30
2023-05-25T09:48:50.276Z,3.15
2023-05-25T09:53:51.851Z,3.65
2023-05-25T09:58:53.803Z,3.60
2023-05-25T10:04:04.308Z,3.33
2023-05-25T10:09:09.064Z,2.90
2023-05-25T10:14:14.594Z,2.80
2023-05-25T10:19:23.033Z,3.33
2023-05-25T10:24:39.174Z,3.45
2023-05-25T10:29:40.945Z,3.67
2023-05-25T10:34:42.729Z,2.97
2023-05-25T10:39:45.663Z,4.03
2023-05-25T10:44:48.026Z,4.03
2023-05-25T10:49:55.187Z,3.28
2023-05-25T10:55:07.398Z,3.05
2023-05-25T11:00:10.365Z,3.90
2023-05-25T11:05:27.506Z,3.75
2023-05-25T11:10:47.964Z,3.90
2023-05-25T11:16:24.858Z,3.10
2023-05-25T11:21:27.244Z,3.80
2023-05-25T11:26:31.568Z,3.63
2023-05-25T11:31:41.393Z,3.10
2023-05-25T11:36:45.912Z,3.60
2023-05-25T11:41:55.643Z,3.55
2023-05-25T11:47:03.698Z,3.20
2023-05-25T11:52:07.430Z,3.33
2023-05-25T11:57:18.979Z,3.20
2023-05-25T12:02:21.937Z,3.15
2023-05-25T12:07:24.358Z,3.45
2023-05-25T12:12:26.525Z,3.22
2023-05-25T12:17:29.224Z,3.30
2023-05-25T12:22:31.350Z,3.28
2023-05-25T12:27:33.496Z,3.05
2023-05-25T12:33:05.080Z,3.30
2023-05-25T12:38:14.720Z,3.80
2023-05-25T12:43:17.748Z,3.80
2023-05-25T12:48:26.796Z,3.10
2023-05-25T12:53:29.130Z,3.47
2023-05-25T12:58:30.862Z,3.45
2023-05-25T13:03:33.140Z,3.28
2023-05-25T13:08:34.754Z,3.20
2023-05-25T13:13:36.383Z,2.67
2023-05-25T13:18:38.013Z,3.40
2023-05-25T13:23:39.692Z,3.67
2023-05-25T13:28:41.356Z,2.72
2023-05-25T13:33:42.985Z,2.90
2023-05-25T13:38:45.649Z,3.30
2023-05-25T13:43:48.321Z,3.13
2023-05-25T13:48:50.451Z,2.97
2023-05-25T13:53:53.584Z,2.80
2023-05-25T13:58:55.377Z,3.05
2023-05-25T14:03:58.277Z,2.90
2023-05-25T14:09:00.336Z,2.97
2023-05-25T14:14:02.090Z,2.92
2023-05-25T14:19:05.234Z,3.13
2023-05-25T14:24:06.932Z,3.00
2023-05-25T14:29:09.071Z,3.00
2023-05-25T14:34:11.417Z,2.78
2023-05-25T14:39:15.754Z,2.90
2023-05-25T14:44:18.802Z,2.80
2023-05-25T14:49:24.812Z,3.00
2023-05-25T14:54:26.538Z,2.70
2023-05-25T14:59:28.159Z,2.75
2023-05-25T15:04:31.514Z,2.97
2023-05-25T15:09:33.919Z,2.70
2023-05-25T15:14:39.794Z,2.70
2023-05-25T15:19:41.380Z,2.55
2023-05-25T15:24:42.981Z,3.30
2023-05-25T15:35:18.709Z,3.17
2023-05-25T15:40:20.502Z,3.67
2023-05-25T15:45:22.227Z,3.30
2023-05-25T15:50:23.863Z,2.65
2023-05-25T15:55:25.684Z,3.03
2023-05-25T16:00:27.542Z,3.55
2023-05-25T16:05:29.928Z,3.60
2023-05-25T16:10:31.606Z,2.65
2023-05-25T16:15:33.206Z,3.30
2023-05-25T16:20:34.956Z,3.10
2023-05-25T16:25:36.658Z,2.80
2023-05-25T16:30:38.295Z,3.25
2023-05-25T16:35:41.676Z,3.13
2023-05-25T16:40:43.316Z,3.13
2023-05-25T16:45:45.076Z,2.70
2023-05-25T16:50:46.991Z,3.20
2023-05-25T16:55:48.847Z,2.80
2023-05-25T17:00:50.865Z,2.50
2023-05-25T17:05:53.807Z,2.53
2023-05-25T17:10:56.638Z,2.78
2023-05-25T17:15:58.332Z,2.63
2023-05-25T17:21:00.167Z,2.90
2023-05-25T17:26:01.863Z,2.60
2023-05-25T17:31:03.483Z,2.58
2023-05-25T17:36:05.617Z,2.40
2023-05-25T17:41:07.207Z,2.10
2023-05-25T17:46:09.223Z,2.42
2023-05-25T17:51:11.162Z,2.20
2023-05-25T17:56:12.754Z,2.28
2023-05-25T18:01:15.284Z,2.67
2023-05-25T18:06:16.966Z,2.10
2023-05-25T18:11:18.772Z,1.90
2023-05-25T18:16:20.424Z,2.25
2023-05-25T18:21:22.096Z,2.20
2023-05-25T18:26:23.735Z,2.50
2023-05-25T18:31:25.618Z,2.50
2023-05-25T18:36:27.296Z,2.33
2023-05-25T18:41:28.977Z,2.33
2023-05-25T18:46:30.665Z,2.90
2023-05-25T18:51:32.275Z,2.95
2023-05-25T18:56:33.856Z,2.67
2023-05-25T19:01:35.463Z,2.70
2023-05-25T19:06:38.061Z,2.63
2023-05-25T19:11:39.919Z,2.58
2023-05-25T19:16:42.713Z,2.50
2023-05-25T19:21:44.798Z,2.50
2023-05-25T19:26:48.435Z,2.65
2023-05-25T19:31:51.332Z,2.80
2023-05-25T19:36:59.937Z,2.65
2023-05-25T19:42:12.143Z,2.60
2023-05-25T19:47:13.976Z,2.53
2023-05-25T19:52:17.399Z,2.85
2023-05-25T19:57:19.818Z,2.50
2023-05-25T20:02:21.808Z,2.90
2023-05-25T20:07:23.945Z,2.80
2023-05-25T20:12:26.155Z,3.00
2023-05-25T20:17:28.111Z,2.83
2023-05-25T20:22:30.153Z,2.53
2023-05-25T20:27:32.506Z,3.28
2023-05-25T20:32:34.972Z,3.38
2023-05-25T20:37:36.610Z,3.50
2023-05-25T20:42:38.713Z,3.58
2023-05-25T20:47:40.882Z,3.20
2023-05-25T20:52:42.768Z,3.80
2023-05-25T20:57:44.467Z,3.63
2023-05-25T21:02:46.656Z,3.50
2023-05-25T21:07:48.619Z,3.42
2023-05-25T21:12:50.290Z,3.55
2023-05-25T21:17:52.114Z,3.47
2023-05-25T21:22:54.297Z,3.28
2023-05-25T21:27:57.296Z,3.40
2023-05-25T21:32:59.566Z,3.80
2023-05-25T21:38:01.463Z,3.60
2023-05-25T21:43:03.806Z,3.70
2023-05-25T21:48:05.528Z,3.75
2023-05-25T21:53:07.130Z,3.90
2023-05-25T21:58:10.038Z,3.90
2023-05-25T22:03:12.033Z,3.80
2023-05-25T22:08:14.163Z,3.40
2023-05-25T22:13:16.791Z,4.32
2023-05-25T22:18:18.620Z,3.97
2023-05-25T22:23:21.817Z,3.75
2023-05-25T22:28:24.751Z,4.15
2023-05-25T22:33:27.290Z,4.18
2023-05-25T22:38:29.833Z,3.78
2023-05-25T22:43:31.645Z,3.85
2023-05-25T22:48:33.236Z,3.88
2023-05-25T22:53:34.865Z,3.97
2023-05-25T22:58:36.485Z,4.05
2023-05-25T23:03:38.327Z,3.90
2023-05-25T23:08:40.014Z,4.13
2023-05-25T23:13:42.780Z,3.85
2023-05-25T23:18:44.807Z,4.38
2023-05-25T23:23:46.375Z,3.72
2023-05-25T23:28:49.411Z,4.50
2023-05-25T23:33:51.108Z,3.83
2023-05-25T23:38:52.959Z,4.40
2023-05-25T23:43:54.589Z,3.70
2023-05-25T23:48:56.188Z,4.32
2023-05-25T23:53:58.416Z,3.50
2023-05-25T23:59:00.017Z,4.05
